Crowell, Texas
Current Conditions -  °F | °C
As of 11:55 AM on Saturday 20 Dec 2014 (Local Time) from KF05 Reporting Station
Overcast Overcast  
Wind Chill: 43°   Ceiling: 1000
Heat Index: 47°   Visibility: 10mi
Dew Point: 39°   Wind: 8mph
Humidity: 74%   Direction: 160°SSE
Pressure: 30.2"   Gusts: NA
Location:  33.98°N, 99.72°W
Report Text: KF05 201755Z AUTO 16007KT 10SM BKN010 OVC027 08/04 A3020 RMK AO1 P0001 60001 T00820038 10112 20000
Loading
Personal Weather Stations






























Interactive Weather Map New forecast layout! Learn more

10-Day Weather Forecast

Advertisements
Track Severe Weather on mobile